createdAt,value
2022-09-21T06:54:47.400Z,72.80
2022-09-21T06:57:13.828Z,72.70
2022-09-21T06:59:40.262Z,72.80
2022-09-21T07:02:06.900Z,72.60
2022-09-21T07:04:33.418Z,72.80
2022-09-21T07:07:02.286Z,72.70
2022-09-21T07:12:16.915Z,72.70
2022-09-21T07:14:43.342Z,72.60
2022-09-21T07:17:15.389Z,72.60
2022-09-21T07:19:42.323Z,72.60
2022-09-21T07:22:08.746Z,72.60
2022-09-21T07:24:35.181Z,72.60
2022-09-21T07:27:01.610Z,72.70
2022-09-21T07:29:28.039Z,72.70
2022-09-21T07:31:54.497Z,72.70
2022-09-21T07:34:20.990Z,72.80
2022-09-21T07:36:47.430Z,72.80
2022-09-21T07:39:13.872Z,72.80
2022-09-21T07:41:40.310Z,72.80
2022-09-21T07:44:06.888Z,72.90
2022-09-21T07:46:33.387Z,73.00
2022-09-21T07:48:59.827Z,73.10
2022-09-21T07:51:26.263Z,73.30
2022-09-21T07:53:52.694Z,73.40
2022-09-21T07:56:19.103Z,73.50
2022-09-21T07:58:45.546Z,73.50
2022-09-21T08:01:12.076Z,73.70
2022-09-21T08:03:38.573Z,73.80
2022-09-21T08:06:05.016Z,74.10
2022-09-21T08:08:31.453Z,73.90
2022-09-21T08:10:57.878Z,74.00
2022-09-21T08:13:24.309Z,74.10
2022-09-21T08:15:50.734Z,74.00
2022-09-21T08:18:17.156Z,74.00
2022-09-21T08:20:43.584Z,74.10
2022-09-21T08:23:10.013Z,74.20
2022-09-21T08:25:36.483Z,74.10
2022-09-21T08:28:07.394Z,74.10
2022-09-21T08:30:36.011Z,74.00
2022-09-21T08:33:02.449Z,73.70
2022-09-21T08:35:28.893Z,73.50
2022-09-21T08:37:55.338Z,73.20
2022-09-21T08:40:21.809Z,73.00
2022-09-21T08:42:50.809Z,72.80
2022-09-21T08:45:17.474Z,72.60
2022-09-21T08:47:43.900Z,72.40
2022-09-21T08:50:10.335Z,72.10
2022-09-21T08:52:36.771Z,71.90
2022-09-21T08:55:03.198Z,71.60
2022-09-21T08:57:29.614Z,71.50
2022-09-21T08:59:56.046Z,71.30
2022-09-21T09:02:22.560Z,71.20
2022-09-21T09:04:49.112Z,70.90
2022-09-21T09:07:15.539Z,70.70
2022-09-21T09:09:41.980Z,70.30
2022-09-21T09:12:10.999Z,70.10
2022-09-21T09:14:37.842Z,69.80
2022-09-21T09:17:04.280Z,69.60
2022-09-21T09:19:30.701Z,69.20
2022-09-21T09:21:57.127Z,68.80
2022-09-21T09:24:23.565Z,68.60
2022-09-21T09:26:50.013Z,68.20
2022-09-21T09:29:16.482Z,68.00
2022-09-21T09:31:43.025Z,67.60
2022-09-21T09:34:09.489Z,67.20
2022-09-21T09:36:57.349Z,66.70
2022-09-21T09:39:22.336Z,66.60
2022-09-21T09:41:48.769Z,66.20
2022-09-21T09:44:15.184Z,66.60
2022-09-21T09:46:41.671Z,65.30
2022-09-21T09:49:08.133Z,65.20
2022-09-21T09:51:34.553Z,65.20
2022-09-21T09:54:00.991Z,64.70
2022-09-21T09:56:27.426Z,64.10
2022-09-21T09:58:53.888Z,64.00
2022-09-21T10:01:20.367Z,63.80
2022-09-21T10:03:46.832Z,63.20
2022-09-21T10:06:13.251Z,62.70
2022-09-21T10:08:39.688Z,62.40
2022-09-21T10:11:06.115Z,61.40
2022-09-21T10:13:32.577Z,60.60
2022-09-21T10:15:59.080Z,59.40
2022-09-21T10:18:25.622Z,58.60
2022-09-21T10:20:52.073Z,58.70
2022-09-21T10:23:18.499Z,59.10
2022-09-21T10:25:44.936Z,58.90
2022-09-21T10:28:11.362Z,58.80
2022-09-21T10:30:37.791Z,58.30
2022-09-21T10:33:04.208Z,58.30
2022-09-21T10:35:30.638Z,57.90
2022-09-21T10:37:57.060Z,57.80
2022-09-21T10:40:23.577Z,57.50
2022-09-21T10:42:50.056Z,57.00
2022-09-21T10:45:16.506Z,56.70
2022-09-21T10:47:42.967Z,55.70
2022-09-21T10:50:09.412Z,55.70
2022-09-21T10:52:35.848Z,54.90
2022-09-21T10:55:02.277Z,54.40
2022-09-21T10:57:28.713Z,54.00
2022-09-21T10:59:55.148Z,54.10
2022-09-21T11:02:21.609Z,53.60
2022-09-21T11:04:48.061Z,51.70
2022-09-21T11:07:14.516Z,50.60
2022-09-21T11:09:40.939Z,50.30
2022-09-21T11:12:07.377Z,49.30
2022-09-21T11:14:33.787Z,49.70
2022-09-21T11:17:00.234Z,50.00
2022-09-21T11:19:26.661Z,50.80
2022-09-21T11:21:53.099Z,50.50
2022-09-21T11:24:19.527Z,50.90
2022-09-21T11:26:45.962Z,50.20
2022-09-21T11:29:12.378Z,49.10
2022-09-21T11:31:38.827Z,48.80
2022-09-21T11:34:05.370Z,49.40
2022-09-21T11:36:31.876Z,50.20
2022-09-21T11:38:58.315Z,50.70
2022-09-21T11:41:24.735Z,50.80
2022-09-21T11:43:51.173Z,50.90
2022-09-21T11:46:17.662Z,51.30
2022-09-21T11:48:44.220Z,51.60
2022-09-21T11:51:10.639Z,51.70
2022-09-21T11:53:37.068Z,52.40
2022-09-21T11:56:03.482Z,51.70
2022-09-21T11:58:29.912Z,51.00
2022-09-21T12:00:56.330Z,49.80
2022-09-21T12:03:22.750Z,49.40
2022-09-21T12:05:49.185Z,48.50
2022-09-21T12:08:15.600Z,48.40
2022-09-21T12:10:42.025Z,48.20
2022-09-21T12:13:08.443Z,48.20
2022-09-21T12:15:34.864Z,47.80
2022-09-21T12:18:01.271Z,47.80
2022-09-21T12:20:27.707Z,47.50
2022-09-21T12:22:54.131Z,47.30
2022-09-21T12:25:20.575Z,46.90
2022-09-21T12:27:46.999Z,47.00
2022-09-21T12:30:13.427Z,46.60
2022-09-21T12:32:39.877Z,46.90
2022-09-21T12:35:06.318Z,46.50
2022-09-21T12:37:32.764Z,46.40
2022-09-21T12:39:59.205Z,46.30
2022-09-21T12:42:25.757Z,46.50
2022-09-21T12:44:52.391Z,46.50
2022-09-21T12:47:18.932Z,46.50
2022-09-21T12:49:45.369Z,45.30
2022-09-21T12:52:11.791Z,45.60
2022-09-21T12:54:38.526Z,46.00
2022-09-21T12:57:17.861Z,46.30
2022-09-21T12:59:51.685Z,46.40
2022-09-21T13:02:18.527Z,46.40
2022-09-21T13:04:45.128Z,46.30
2022-09-21T13:07:11.552Z,46.30
2022-09-21T13:09:37.981Z,46.30
2022-09-21T13:12:04.423Z,46.40
2022-09-21T13:14:30.836Z,46.50
2022-09-21T13:16:57.257Z,46.50
2022-09-21T13:19:23.690Z,46.30
2022-09-21T13:21:50.107Z,45.80
2022-09-21T13:24:16.529Z,45.60
2022-09-21T13:26:42.945Z,45.60
2022-09-21T13:29:09.376Z,45.30
2022-09-21T13:31:40.794Z,45.40
2022-09-21T13:34:07.626Z,45.50
2022-09-21T13:36:34.069Z,45.20
2022-09-21T13:39:00.505Z,45.30
2022-09-21T13:41:45.515Z,44.60
2022-09-21T13:44:13.363Z,44.30
2022-09-21T13:46:39.779Z,44.10
2022-09-21T13:49:06.216Z,44.10
2022-09-21T13:51:32.634Z,44.00
2022-09-21T13:53:59.072Z,44.00
2022-09-21T13:56:25.493Z,43.60
2022-09-21T13:58:51.903Z,43.70
2022-09-21T14:01:42.473Z,43.90
2022-09-21T14:04:04.737Z,44.20
2022-09-21T14:06:31.156Z,44.50
2022-09-21T14:08:57.593Z,43.90
2022-09-21T14:11:24.085Z,44.00
2022-09-21T14:13:50.517Z,44.00
2022-09-21T14:16:16.972Z,44.30
2022-09-21T14:18:43.429Z,44.20
2022-09-21T14:21:09.884Z,44.10
2022-09-21T14:23:36.352Z,43.80
2022-09-21T14:26:02.788Z,43.50
2022-09-21T14:28:29.222Z,43.30
2022-09-21T14:30:55.674Z,43.00
2022-09-21T14:33:22.097Z,42.40
2022-09-21T14:35:48.531Z,42.60
2022-09-21T14:38:14.947Z,42.40
2022-09-21T14:40:41.407Z,42.20
2022-09-21T14:43:07.844Z,41.90
2022-09-21T14:45:34.277Z,41.70
2022-09-21T14:48:00.714Z,41.80
2022-09-21T14:50:27.136Z,41.50
2022-09-21T14:52:53.581Z,41.60
2022-09-21T14:55:20.064Z,41.60
2022-09-21T14:57:46.508Z,42.10
2022-09-21T15:00:12.936Z,42.90
2022-09-21T15:02:39.366Z,42.70
2022-09-21T15:05:05.805Z,42.70
2022-09-21T15:07:32.245Z,42.90
2022-09-21T15:09:58.679Z,43.20
2022-09-21T15:12:25.099Z,43.60
2022-09-21T15:14:51.558Z,43.90
2022-09-21T15:17:17.979Z,44.20
2022-09-21T15:19:44.434Z,44.20
2022-09-21T15:22:10.896Z,44.20
2022-09-21T15:24:37.333Z,44.40
2022-09-21T15:27:03.769Z,44.50
2022-09-21T15:29:30.192Z,44.50
2022-09-21T15:31:56.688Z,44.80
2022-09-21T15:34:23.167Z,45.10
2022-09-21T15:36:49.609Z,45.30
2022-09-21T15:39:16.041Z,45.70
2022-09-21T15:41:42.491Z,46.20
2022-09-21T15:44:08.918Z,46.60
2022-09-21T15:46:35.409Z,47.00
2022-09-21T15:49:02.029Z,47.20
2022-09-21T15:51:28.485Z,47.50
2022-09-21T15:53:54.935Z,47.80
2022-09-21T15:56:21.354Z,48.50
2022-09-21T15:58:47.780Z,48.10
2022-09-21T16:01:14.272Z,48.40
2022-09-21T16:03:40.802Z,48.60
2022-09-21T16:06:07.272Z,48.80
2022-09-21T16:08:33.682Z,48.90
2022-09-21T16:11:00.133Z,49.00
2022-09-21T16:13:26.554Z,49.10
2022-09-21T16:15:53.009Z,49.10
2022-09-21T16:18:19.437Z,49.10
2022-09-21T16:20:45.863Z,49.00
2022-09-21T16:23:12.309Z,49.00
2022-09-21T16:25:38.748Z,49.10
2022-09-21T16:28:05.171Z,49.20
2022-09-21T16:30:31.599Z,49.20
2022-09-21T16:32:58.045Z,49.40
2022-09-21T16:35:24.481Z,49.60
2022-09-21T16:37:50.925Z,49.90
2022-09-21T16:40:17.423Z,50.00
2022-09-21T16:42:43.903Z,50.10
2022-09-21T16:45:10.335Z,50.30
2022-09-21T16:47:36.777Z,50.50
2022-09-21T16:50:03.221Z,50.70
2022-09-21T16:52:29.674Z,50.80
2022-09-21T16:54:56.097Z,51.00
2022-09-21T16:57:22.515Z,51.20
2022-09-21T16:59:48.927Z,51.30
2022-09-21T17:02:15.379Z,51.40
2022-09-21T17:04:41.843Z,51.30
2022-09-21T17:07:08.272Z,51.40
2022-09-21T17:09:34.710Z,52.40
2022-09-21T17:12:01.160Z,52.10
2022-09-21T17:14:27.614Z,52.30
2022-09-21T17:16:54.062Z,52.40
2022-09-21T17:19:20.508Z,52.50
2022-09-21T17:21:46.940Z,52.80
2022-09-21T17:24:27.524Z,53.00
2022-09-21T17:26:59.852Z,53.20
2022-09-21T17:29:26.337Z,53.40
2022-09-21T17:31:52.771Z,53.60
2022-09-21T17:34:19.216Z,53.80
2022-09-21T17:36:45.635Z,53.80
2022-09-21T17:39:12.069Z,54.00
2022-09-21T17:41:38.488Z,54.20
2022-09-21T17:44:04.941Z,54.20
2022-09-21T17:46:31.528Z,54.40
2022-09-21T17:48:58.028Z,54.50
2022-09-21T17:51:24.452Z,54.60
2022-09-21T17:53:50.885Z,54.90
2022-09-21T17:56:17.362Z,55.00
2022-09-21T17:58:43.818Z,55.10
2022-09-21T18:01:10.235Z,55.10
2022-09-21T18:03:36.681Z,55.20
2022-09-21T18:06:03.162Z,55.30
2022-09-21T18:08:29.650Z,55.50
2022-09-21T18:10:56.068Z,55.70
2022-09-21T18:13:22.491Z,55.80
2022-09-21T18:15:48.950Z,55.80
2022-09-21T18:18:15.413Z,56.00
2022-09-21T18:20:41.847Z,56.10
2022-09-21T18:23:08.285Z,56.10
2022-09-21T18:25:34.749Z,56.20
2022-09-21T18:28:01.193Z,56.30
2022-09-21T18:30:27.636Z,56.50
2022-09-21T18:32:54.089Z,56.60
2022-09-21T18:35:20.538Z,56.90
2022-09-21T18:37:47.024Z,57.10
2022-09-21T18:40:13.501Z,57.20
2022-09-21T18:42:40.455Z,57.30
2022-09-21T18:45:06.995Z,57.40
2022-09-21T18:47:33.433Z,57.40
2022-09-21T18:49:59.894Z,57.70
2022-09-21T18:52:26.357Z,57.90
2022-09-21T18:54:52.772Z,58.00
2022-09-21T18:57:19.209Z,58.10
2022-09-21T18:59:45.651Z,58.30
2022-09-21T19:02:12.305Z,58.30
2022-09-21T19:04:38.780Z,58.30
2022-09-21T19:07:05.241Z,58.50
2022-09-21T19:09:31.673Z,58.50
2022-09-21T19:11:58.111Z,58.70
2022-09-21T19:14:24.544Z,59.00
2022-09-21T19:16:51.044Z,59.00
2022-09-21T19:19:17.476Z,59.00
2022-09-21T19:21:43.915Z,59.10
2022-09-21T19:24:10.327Z,59.30
2022-09-21T19:26:36.740Z,59.80
2022-09-21T19:29:03.178Z,60.20
2022-09-21T19:31:29.687Z,60.20
2022-09-21T19:33:56.210Z,60.10
2022-09-21T19:36:22.651Z,60.10
2022-09-21T19:38:49.090Z,60.10
2022-09-21T19:41:15.533Z,60.30
2022-09-21T19:43:41.981Z,60.30
2022-09-21T19:46:08.429Z,60.50
2022-09-21T19:48:34.904Z,60.60
2022-09-21T19:51:01.343Z,60.90
2022-09-21T19:53:27.784Z,61.30
2022-09-21T19:55:54.200Z,61.20
2022-09-21T19:58:20.633Z,61.40
2022-09-21T20:00:47.060Z,61.70
2022-09-21T20:03:13.495Z,61.70
2022-09-21T20:05:39.920Z,61.70
2022-09-21T20:08:06.337Z,61.80
2022-09-21T20:10:32.760Z,61.80
2022-09-21T20:12:59.192Z,61.90
2022-09-21T20:15:25.619Z,61.90
2022-09-21T20:17:52.035Z,62.00
2022-09-21T20:20:18.466Z,62.00
2022-09-21T20:22:44.889Z,62.20
2022-09-21T20:25:11.316Z,62.30
2022-09-21T20:27:37.746Z,62.60
2022-09-21T20:30:04.167Z,62.70
2022-09-21T20:32:30.584Z,63.00
2022-09-21T20:34:57.021Z,63.10
2022-09-21T20:37:23.466Z,63.20
2022-09-21T20:39:49.904Z,63.20
2022-09-21T20:42:16.355Z,63.10
2022-09-21T20:44:42.773Z,63.10
2022-09-21T20:47:09.204Z,63.20
2022-09-21T20:49:35.635Z,63.30
2022-09-21T20:52:02.073Z,63.30
2022-09-21T20:54:28.506Z,63.50
2022-09-21T20:56:54.947Z,63.40
2022-09-21T20:59:21.385Z,63.30
2022-09-21T21:01:47.864Z,63.30
2022-09-21T21:04:14.369Z,63.50
2022-09-21T21:06:40.846Z,63.60
2022-09-21T21:09:07.317Z,63.80
2022-09-21T21:11:33.761Z,63.90
2022-09-21T21:14:00.182Z,63.80
2022-09-21T21:16:26.661Z,63.80
2022-09-21T21:18:53.094Z,63.70
2022-09-21T21:21:19.520Z,63.70
2022-09-21T21:23:45.944Z,63.70
2022-09-21T21:26:12.393Z,63.70
2022-09-21T21:28:38.825Z,63.70
2022-09-21T21:31:05.278Z,63.80
2022-09-21T21:33:31.722Z,63.90
2022-09-21T21:35:58.147Z,63.90
2022-09-21T21:38:24.555Z,63.90
2022-09-21T21:40:51.016Z,64.00
2022-09-21T21:43:17.481Z,64.00
2022-09-21T21:45:43.971Z,64.10
2022-09-21T21:48:10.420Z,64.10
2022-09-21T21:50:36.866Z,64.10
2022-09-21T21:53:03.279Z,64.00
2022-09-21T21:55:29.693Z,64.10
2022-09-21T21:57:56.144Z,64.20
2022-09-21T22:00:22.557Z,64.20
2022-09-21T22:02:48.976Z,64.30
2022-09-21T22:05:15.388Z,64.20
2022-09-21T22:07:41.849Z,64.30
2022-09-21T22:10:08.264Z,64.30
2022-09-21T22:12:34.700Z,64.50
2022-09-21T22:15:01.113Z,64.60
2022-09-21T22:17:27.535Z,64.70
2022-09-21T22:19:53.965Z,64.60
2022-09-21T22:22:20.399Z,64.60
2022-09-21T22:24:46.833Z,64.90
2022-09-21T22:27:13.268Z,65.10
2022-09-21T22:29:39.690Z,65.10
2022-09-21T22:32:06.123Z,65.30
2022-09-21T22:34:32.533Z,65.30
2022-09-21T22:36:58.997Z,65.30
2022-09-21T22:39:25.438Z,65.20
2022-09-21T22:41:51.860Z,65.30
2022-09-21T22:44:18.290Z,65.30
2022-09-21T22:46:44.737Z,65.30
2022-09-21T22:49:11.172Z,65.30
2022-09-21T22:51:37.605Z,65.30
2022-09-21T22:54:04.031Z,65.40
2022-09-21T22:56:30.466Z,65.70
2022-09-21T22:58:56.896Z,65.80
2022-09-21T23:01:23.342Z,65.80
2022-09-21T23:03:49.839Z,65.90
2022-09-21T23:06:16.280Z,65.90
2022-09-21T23:08:42.716Z,65.90
2022-09-21T23:11:09.138Z,65.90
2022-09-21T23:13:35.573Z,66.00
2022-09-21T23:16:02.039Z,65.90
2022-09-21T23:18:28.504Z,66.10
2022-09-21T23:20:54.939Z,66.10
2022-09-21T23:23:21.374Z,66.10
2022-09-21T23:25:47.798Z,66.10
2022-09-21T23:28:14.231Z,66.00
2022-09-21T23:30:40.641Z,65.90
2022-09-21T23:33:07.059Z,66.00
2022-09-21T23:35:33.486Z,66.00
2022-09-21T23:37:59.921Z,66.10
2022-09-21T23:40:26.415Z,66.20
2022-09-21T23:42:52.908Z,66.30
2022-09-21T23:45:19.342Z,66.20
2022-09-21T23:47:45.777Z,66.10
2022-09-21T23:50:12.208Z,66.20
2022-09-21T23:52:38.645Z,66.20
2022-09-21T23:55:05.076Z,66.10
2022-09-21T23:57:31.495Z,66.10
2022-09-21T23:59:57.925Z,66.20
